createdAt,value
2018-11-03T00:01:27.624Z,4.10
2018-11-03T00:04:30.768Z,4.00
2018-11-03T00:07:33.827Z,3.90
2018-11-03T00:10:36.848Z,3.80
2018-11-03T00:13:39.914Z,3.70
2018-11-03T00:16:42.968Z,3.70
2018-11-03T00:19:46.095Z,3.60
2018-11-03T00:22:49.116Z,3.60
2018-11-03T00:25:52.204Z,3.60
2018-11-03T00:28:55.457Z,3.50
2018-11-03T00:31:58.469Z,3.40
2018-11-03T00:35:01.503Z,3.40
2018-11-03T00:38:04.751Z,3.30
2018-11-03T00:41:08.088Z,3.30
2018-11-03T00:44:11.144Z,3.20
2018-11-03T00:47:14.166Z,3.20
2018-11-03T00:50:17.234Z,3.10
2018-11-03T00:53:20.255Z,3.00
2018-11-03T00:56:23.308Z,3.00
2018-11-03T00:59:26.327Z,2.90
2018-11-03T01:02:29.395Z,2.90
2018-11-03T01:05:32.417Z,2.90
2018-11-03T01:08:35.455Z,2.80
2018-11-03T01:11:38.665Z,3.00
2018-11-03T01:14:41.660Z,3.10
2018-11-03T01:17:44.784Z,3.10
2018-11-03T01:20:47.844Z,3.10
2018-11-03T01:23:50.911Z,3.10
2018-11-03T01:26:53.927Z,3.10
2018-11-03T01:29:56.947Z,3.20
2018-11-03T01:32:59.908Z,3.20
2018-11-03T01:36:03.039Z,3.20
2018-11-03T01:39:08.481Z,3.20
2018-11-03T01:42:11.562Z,3.20
2018-11-03T01:45:14.532Z,3.20
2018-11-03T01:48:17.531Z,3.20
2018-11-03T01:51:20.513Z,3.30
2018-11-03T01:54:23.735Z,3.20
2018-11-03T01:57:26.704Z,3.30
2018-11-03T02:00:29.839Z,3.30
2018-11-03T02:03:32.883Z,3.20
2018-11-03T02:06:35.908Z,3.30
2018-11-03T02:09:39.068Z,3.30
2018-11-03T02:12:42.191Z,3.30
2018-11-03T02:15:45.331Z,3.40
2018-11-03T02:18:48.380Z,3.40
2018-11-03T02:21:51.440Z,3.50
2018-11-03T02:24:54.779Z,3.50
2018-11-03T02:27:57.836Z,3.50
2018-11-03T02:31:01.163Z,3.50
2018-11-03T02:34:04.222Z,3.50
2018-11-03T02:37:07.240Z,3.50
2018-11-03T02:40:11.784Z,3.50
2018-11-03T02:43:15.211Z,3.60
2018-11-03T02:46:18.228Z,3.60
2018-11-03T02:49:21.251Z,3.60
2018-11-03T02:52:24.311Z,3.60
2018-11-03T02:55:27.332Z,3.60
2018-11-03T02:58:30.396Z,3.70
2018-11-03T03:01:33.723Z,3.70
2018-11-03T03:04:36.788Z,3.70
2018-11-03T03:07:39.959Z,3.70
2018-11-03T03:10:42.968Z,3.70
2018-11-03T03:13:46.092Z,3.70
2018-11-03T03:16:49.465Z,3.70
2018-11-03T03:19:52.483Z,3.70
2018-11-03T03:22:55.709Z,3.70
2018-11-03T03:25:58.797Z,3.70
2018-11-03T03:29:01.966Z,3.70
2018-11-03T03:32:05.368Z,3.70
2018-11-03T03:35:08.632Z,3.70
2018-11-03T03:38:11.692Z,3.70
2018-11-03T03:41:14.721Z,3.80
2018-11-03T03:44:17.991Z,3.80
2018-11-03T03:47:21.003Z,3.80
2018-11-03T03:50:24.024Z,3.80
2018-11-03T03:53:27.083Z,3.90
2018-11-03T03:56:30.136Z,3.90
2018-11-03T03:59:33.169Z,3.90
2018-11-03T04:02:36.295Z,4.00
2018-11-03T04:05:39.458Z,4.00
2018-11-03T04:08:42.484Z,4.00
2018-11-03T04:11:45.543Z,4.00
2018-11-03T04:14:48.975Z,4.10
2018-11-03T04:17:52.032Z,4.20
2018-11-03T04:20:55.051Z,4.10
2018-11-03T04:23:58.343Z,4.10
2018-11-03T04:27:01.448Z,4.10
2018-11-03T04:30:06.832Z,4.00
2018-11-03T04:33:09.860Z,4.00
2018-11-03T04:36:12.871Z,4.10
2018-11-03T04:39:15.976Z,4.10
2018-11-03T04:42:19.006Z,4.10
2018-11-03T04:45:22.131Z,4.00
2018-11-03T04:48:25.109Z,4.10
2018-11-03T04:51:28.648Z,4.00
2018-11-03T04:54:31.600Z,4.00
2018-11-03T04:57:34.620Z,4.00
2018-11-03T05:00:37.604Z,4.10
2018-11-03T05:03:40.728Z,4.10
2018-11-03T05:06:43.768Z,4.10
2018-11-03T05:09:46.902Z,4.30
2018-11-03T05:12:49.952Z,4.30
2018-11-03T05:15:53.083Z,4.20
2018-11-03T05:18:56.036Z,4.20
2018-11-03T05:21:59.164Z,4.20
2018-11-03T05:25:02.220Z,4.10
2018-11-03T05:28:05.443Z,4.10
2018-11-03T05:31:08.529Z,4.10
2018-11-03T05:34:11.635Z,4.20
2018-11-03T05:37:14.596Z,4.20
2018-11-03T05:40:17.612Z,4.20
2018-11-03T05:43:20.677Z,4.20
2018-11-03T05:46:24.722Z,4.30
2018-11-03T05:49:27.683Z,4.30
2018-11-03T05:52:30.700Z,4.40
2018-11-03T05:55:33.764Z,4.40
2018-11-03T05:58:36.786Z,4.40
2018-11-03T06:01:39.827Z,4.30
2018-11-03T06:04:42.864Z,4.30
2018-11-03T06:07:45.827Z,4.30
2018-11-03T06:10:48.848Z,4.30
2018-11-03T06:13:51.909Z,4.30
2018-11-03T06:16:54.941Z,4.30
2018-11-03T06:19:57.997Z,4.30
2018-11-03T06:23:01.061Z,4.30
2018-11-03T06:26:04.075Z,4.30
2018-11-03T06:29:07.096Z,4.40
2018-11-03T06:32:10.172Z,4.50
2018-11-03T06:35:13.353Z,4.60
2018-11-03T06:38:16.344Z,4.50
2018-11-03T06:41:19.389Z,4.60
2018-11-03T06:44:22.428Z,4.70
2018-11-03T06:47:25.465Z,4.70
2018-11-03T06:50:29.120Z,4.70
2018-11-03T06:53:32.184Z,4.70
2018-11-03T06:56:35.188Z,4.80
2018-11-03T06:59:38.325Z,4.80
2018-11-03T07:02:41.387Z,4.90
2018-11-03T07:05:44.424Z,5.00
2018-11-03T07:08:47.476Z,5.00
2018-11-03T07:11:50.571Z,5.10
2018-11-03T07:14:53.565Z,5.20
2018-11-03T07:17:56.583Z,5.30
2018-11-03T07:20:59.651Z,5.40
2018-11-03T07:24:02.665Z,5.60
2018-11-03T07:27:05.723Z,5.60
2018-11-03T07:30:11.229Z,5.70
2018-11-03T07:33:14.264Z,5.80
2018-11-03T07:36:17.392Z,6.00
2018-11-03T07:39:20.455Z,6.00
2018-11-03T07:42:23.544Z,6.10
2018-11-03T07:45:26.531Z,6.30
2018-11-03T07:48:29.575Z,6.30
2018-11-03T07:51:32.612Z,6.40
2018-11-03T07:54:35.645Z,6.50
2018-11-03T07:57:39.007Z,6.60
2018-11-03T08:00:42.177Z,6.80
2018-11-03T08:03:45.188Z,6.80
2018-11-03T08:06:48.216Z,6.90
2018-11-03T08:09:51.273Z,7.00
2018-11-03T08:12:54.303Z,7.10
2018-11-03T08:15:57.356Z,7.20
2018-11-03T08:19:00.483Z,7.40
2018-11-03T08:22:03.540Z,7.50
2018-11-03T08:25:06.868Z,7.50
2018-11-03T08:28:09.931Z,7.50
2018-11-03T08:31:12.960Z,7.50
2018-11-03T08:34:16.019Z,7.60
2018-11-03T08:37:19.448Z,7.70
2018-11-03T08:40:22.504Z,7.80
2018-11-03T08:43:25.527Z,8.00
2018-11-03T08:46:28.590Z,8.00
2018-11-03T08:49:31.611Z,8.00
2018-11-03T08:52:34.672Z,7.70
2018-11-03T08:55:37.739Z,7.70
2018-11-03T08:58:40.757Z,7.70
2018-11-03T09:01:43.782Z,7.80
2018-11-03T09:04:46.840Z,7.90
2018-11-03T09:07:49.862Z,8.00
2018-11-03T09:10:52.928Z,8.20
2018-11-03T09:13:55.939Z,8.40
2018-11-03T09:16:59.033Z,8.70
2018-11-03T09:20:02.127Z,9.20
2018-11-03T09:23:05.203Z,9.80
2018-11-03T09:26:08.208Z,10.50
2018-11-03T09:29:11.272Z,10.50
2018-11-03T09:32:14.291Z,10.60
2018-11-03T09:35:17.287Z,10.70
2018-11-03T09:38:20.347Z,10.80
2018-11-03T09:41:23.368Z,10.80
2018-11-03T09:44:26.431Z,10.70
2018-11-03T09:47:29.772Z,11.00
2018-11-03T09:50:32.877Z,11.20
2018-11-03T09:53:35.835Z,11.40
2018-11-03T09:56:39.108Z,11.70
2018-11-03T09:59:42.024Z,11.90
2018-11-03T10:02:45.127Z,11.90
2018-11-03T10:05:48.159Z,12.00
2018-11-03T10:08:51.275Z,12.20
2018-11-03T10:11:54.264Z,12.00
2018-11-03T10:14:57.328Z,12.30
2018-11-03T10:18:00.451Z,13.20
2018-11-03T10:21:03.575Z,13.60
2018-11-03T10:24:06.735Z,13.90
2018-11-03T10:27:09.868Z,14.00
2018-11-03T10:30:13.971Z,14.70
2018-11-03T10:33:17.079Z,15.30
2018-11-03T10:36:20.138Z,15.10
2018-11-03T10:39:23.276Z,15.40
2018-11-03T10:42:26.736Z,15.10
2018-11-03T10:45:29.792Z,14.60
2018-11-03T10:48:32.912Z,15.20
2018-11-03T10:51:35.935Z,15.00
2018-11-03T10:54:39.304Z,15.20
2018-11-03T10:57:42.735Z,15.60
2018-11-03T11:00:51.255Z,15.60
2018-11-03T11:04:00.004Z,16.30
2018-11-03T11:07:08.639Z,17.30
2018-11-03T11:10:17.071Z,17.30
2018-11-03T11:13:23.387Z,17.30
2018-11-03T11:16:26.503Z,17.40
2018-11-03T11:19:29.436Z,16.80
2018-11-03T11:22:32.563Z,17.00
2018-11-03T11:25:35.632Z,17.50
2018-11-03T11:28:38.669Z,18.00
2018-11-03T11:31:41.704Z,17.70
2018-11-03T11:34:44.836Z,18.90
2018-11-03T11:37:47.892Z,19.10
2018-11-03T11:40:50.987Z,19.20
2018-11-03T11:43:53.996Z,20.40
2018-11-03T11:46:57.310Z,22.00
2018-11-03T11:50:00.348Z,22.30
2018-11-03T11:53:03.692Z,23.40
2018-11-03T11:56:06.757Z,24.00
2018-11-03T11:59:09.990Z,23.80
2018-11-03T12:02:13.080Z,23.30
2018-11-03T12:05:16.066Z,22.10
2018-11-03T12:08:19.129Z,20.50
2018-11-03T12:11:22.244Z,19.90
2018-11-03T12:14:25.317Z,19.50
2018-11-03T12:17:28.435Z,18.80
2018-11-03T12:20:31.396Z,18.40
2018-11-03T12:23:34.419Z,17.80
2018-11-03T12:26:37.480Z,17.30
2018-11-03T12:29:40.524Z,17.00
2018-11-03T12:32:43.560Z,16.80
2018-11-03T12:35:46.580Z,16.30
2018-11-03T12:38:49.648Z,15.60
2018-11-03T12:41:52.665Z,15.50
2018-11-03T12:44:55.827Z,14.90
2018-11-03T12:47:58.997Z,14.40
2018-11-03T12:51:02.027Z,14.10
2018-11-03T12:54:05.135Z,13.90
2018-11-03T12:57:08.200Z,13.80
2018-11-03T13:00:13.179Z,13.80
2018-11-03T13:03:16.278Z,13.70
2018-11-03T13:06:19.455Z,14.00
2018-11-03T13:09:22.515Z,14.10
2018-11-03T13:12:25.631Z,13.90
2018-11-03T13:15:28.600Z,13.70
2018-11-03T13:18:31.636Z,13.90
2018-11-03T13:21:34.680Z,14.30
2018-11-03T13:24:37.843Z,14.00
2018-11-03T13:27:41.489Z,13.70
2018-11-03T13:30:44.552Z,13.70
2018-11-03T13:33:47.564Z,13.80
2018-11-03T13:36:50.798Z,13.70
2018-11-03T13:39:53.852Z,13.50
2018-11-03T13:42:56.967Z,13.30
2018-11-03T13:45:59.911Z,13.00
2018-11-03T13:49:03.163Z,13.10
2018-11-03T13:52:06.132Z,13.00
2018-11-03T13:55:09.760Z,12.90
2018-11-03T13:58:12.817Z,12.80
2018-11-03T14:01:15.872Z,13.00
2018-11-03T14:04:18.899Z,12.80
2018-11-03T14:07:22.231Z,12.50
2018-11-03T14:10:25.192Z,12.40
2018-11-03T14:13:28.320Z,12.20
2018-11-03T14:16:31.375Z,12.20
2018-11-03T14:19:34.395Z,12.10
2018-11-03T14:22:37.355Z,12.10
2018-11-03T14:25:40.487Z,12.10
2018-11-03T14:28:43.556Z,12.20
2018-11-03T14:31:46.563Z,12.10
2018-11-03T14:34:49.728Z,12.10
2018-11-03T14:37:52.900Z,12.10
2018-11-03T14:40:55.912Z,12.00
2018-11-03T14:43:58.931Z,11.90
2018-11-03T14:47:01.892Z,11.70
2018-11-03T14:50:06.228Z,11.70
2018-11-03T14:53:09.203Z,11.70
2018-11-03T14:56:12.224Z,11.70
2018-11-03T14:59:15.188Z,11.60
2018-11-03T15:02:18.416Z,11.60
2018-11-03T15:05:21.471Z,11.50
2018-11-03T15:08:24.520Z,11.50
2018-11-03T15:11:27.557Z,11.50
2018-11-03T15:14:30.616Z,11.40
2018-11-03T15:17:33.639Z,11.30
2018-11-03T15:20:36.699Z,11.20
2018-11-03T15:23:39.724Z,11.10
2018-11-03T15:26:42.847Z,10.90
2018-11-03T15:29:45.804Z,10.80
2018-11-03T15:32:48.823Z,10.70
2018-11-03T15:35:51.788Z,10.60
2018-11-03T15:38:54.803Z,10.50
2018-11-03T15:41:57.935Z,10.30
2018-11-03T15:45:01.223Z,10.20
2018-11-03T15:48:04.259Z,10.10
2018-11-03T15:51:07.316Z,10.00
2018-11-03T15:54:10.443Z,9.90
2018-11-03T15:57:13.467Z,9.90
2018-11-03T16:00:18.984Z,9.80
2018-11-03T16:03:22.111Z,9.70
2018-11-03T16:06:25.480Z,9.60
2018-11-03T16:09:28.495Z,9.50
2018-11-03T16:12:31.474Z,9.40
2018-11-03T16:15:34.475Z,9.30
2018-11-03T16:18:37.439Z,9.20
2018-11-03T16:21:40.441Z,9.10
2018-11-03T16:24:43.416Z,9.00
2018-11-03T16:27:46.439Z,9.00
2018-11-03T16:30:49.397Z,8.90
2018-11-03T16:33:52.416Z,8.80
2018-11-03T16:36:55.375Z,8.70
2018-11-03T16:39:58.409Z,8.70
2018-11-03T16:43:01.463Z,8.50
2018-11-03T16:46:04.686Z,8.30
2018-11-03T16:49:07.647Z,8.20
2018-11-03T16:52:10.667Z,8.00
2018-11-03T16:55:14.749Z,8.00
2018-11-03T16:58:17.744Z,7.90
2018-11-03T17:01:20.808Z,7.80
2018-11-03T17:04:23.803Z,7.70
2018-11-03T17:07:26.848Z,7.70
2018-11-03T17:10:29.807Z,7.60
2018-11-03T17:13:32.804Z,7.50
2018-11-03T17:16:35.887Z,7.40
2018-11-03T17:19:38.911Z,7.40
2018-11-03T17:22:41.874Z,7.30
2018-11-03T17:25:44.889Z,7.10
2018-11-03T17:28:47.856Z,7.00
2018-11-03T17:31:51.016Z,6.90
2018-11-03T17:34:54.038Z,6.90
2018-11-03T17:37:57.063Z,6.80
2018-11-03T17:41:00.121Z,6.70
2018-11-03T17:44:03.516Z,6.60
2018-11-03T17:47:06.740Z,6.50
2018-11-03T17:50:11.300Z,6.30
2018-11-03T17:53:14.334Z,6.20
2018-11-03T17:56:17.396Z,6.10
2018-11-03T17:59:20.416Z,6.00
2018-11-03T18:02:23.440Z,5.80
2018-11-03T18:05:26.500Z,5.70
2018-11-03T18:08:29.832Z,5.60
2018-11-03T18:11:32.888Z,5.60
2018-11-03T18:14:35.908Z,5.40
2018-11-03T18:17:38.872Z,5.30
2018-11-03T18:20:41.927Z,5.20
2018-11-03T18:23:44.951Z,5.10
2018-11-03T18:26:48.084Z,5.00
2018-11-03T18:29:51.139Z,4.90
2018-11-03T18:32:54.186Z,4.80
2018-11-03T18:35:57.224Z,4.70
2018-11-03T18:39:00.555Z,4.60
2018-11-03T18:42:03.514Z,4.50
2018-11-03T18:45:07.280Z,4.40
2018-11-03T18:48:10.316Z,4.40
2018-11-03T18:51:13.331Z,4.30
2018-11-03T18:54:16.392Z,4.10
2018-11-03T18:57:19.412Z,4.00
2018-11-03T19:00:22.476Z,3.90
2018-11-03T19:03:25.500Z,3.90
2018-11-03T19:06:28.460Z,3.80
2018-11-03T19:09:31.480Z,3.80
2018-11-03T19:12:34.540Z,3.70
2018-11-03T19:15:37.559Z,3.60
2018-11-03T19:18:40.628Z,3.60
2018-11-03T19:21:43.648Z,3.50
2018-11-03T19:24:46.604Z,3.50
2018-11-03T19:27:49.732Z,3.50
2018-11-03T19:30:52.788Z,3.60
2018-11-03T19:33:55.809Z,3.60
2018-11-03T19:36:58.908Z,3.60
2018-11-03T19:40:01.940Z,3.50
2018-11-03T19:43:05.390Z,3.50
2018-11-03T19:46:08.360Z,3.50
2018-11-03T19:49:11.486Z,3.40
2018-11-03T19:52:14.543Z,3.30
2018-11-03T19:55:17.573Z,3.30
2018-11-03T19:58:20.624Z,3.20
2018-11-03T20:01:23.948Z,3.20
2018-11-03T20:04:26.907Z,3.00
2018-11-03T20:07:29.967Z,2.90
2018-11-03T20:10:32.992Z,2.80
2018-11-03T20:13:36.011Z,2.80
2018-11-03T20:16:39.056Z,2.70
2018-11-03T20:19:42.228Z,2.70
2018-11-03T20:22:45.259Z,2.60
2018-11-03T20:25:48.596Z,2.60
2018-11-03T20:28:51.964Z,2.50
2018-11-03T20:31:55.076Z,2.50
2018-11-03T20:34:58.039Z,2.50
2018-11-03T20:38:01.173Z,2.40
2018-11-03T20:41:04.432Z,2.30
2018-11-03T20:44:07.655Z,2.20
2018-11-03T20:47:10.616Z,2.20
2018-11-03T20:50:14.263Z,2.20
2018-11-03T20:53:17.315Z,2.20
2018-11-03T20:56:20.333Z,2.20
2018-11-03T20:59:23.499Z,2.10
2018-11-03T21:02:26.627Z,2.00
2018-11-03T21:05:29.688Z,1.90
2018-11-03T21:08:32.708Z,1.90
2018-11-03T21:11:35.767Z,1.80
2018-11-03T21:14:38.999Z,1.70
2018-11-03T21:17:42.059Z,1.70
2018-11-03T21:20:45.072Z,1.70
2018-11-03T21:23:48.051Z,1.70
2018-11-03T21:26:51.128Z,1.60
2018-11-03T21:29:54.133Z,1.60
2018-11-03T21:32:57.281Z,1.60
2018-11-03T21:36:00.208Z,1.60
2018-11-03T21:39:04.261Z,1.60
2018-11-03T21:42:07.317Z,1.50
2018-11-03T21:45:10.381Z,1.40
2018-11-03T21:48:13.391Z,1.30
2018-11-03T21:51:16.412Z,1.20
2018-11-03T21:54:19.372Z,1.20
2018-11-03T21:57:22.499Z,1.20
2018-11-03T22:00:25.571Z,1.20
2018-11-03T22:03:28.580Z,1.20
2018-11-03T22:06:31.540Z,1.10
2018-11-03T22:09:34.875Z,1.20
2018-11-03T22:12:38.225Z,1.10
2018-11-03T22:15:41.300Z,1.10
2018-11-03T22:18:44.319Z,1.10
2018-11-03T22:21:47.492Z,1.10
2018-11-03T22:24:50.505Z,1.00
2018-11-03T22:27:53.542Z,1.00
2018-11-03T22:30:56.588Z,1.00
2018-11-03T22:33:59.611Z,1.00
2018-11-03T22:37:02.568Z,0.90
2018-11-03T22:40:06.272Z,0.80
2018-11-03T22:43:09.268Z,0.80
2018-11-03T22:46:12.604Z,0.70
2018-11-03T22:49:15.655Z,0.70
2018-11-03T22:52:18.785Z,0.70
2018-11-03T22:55:22.044Z,0.70
2018-11-03T22:58:25.071Z,0.60
2018-11-03T23:01:28.131Z,0.60
2018-11-03T23:04:31.155Z,0.60
2018-11-03T23:07:34.209Z,0.60
2018-11-03T23:10:37.212Z,0.60
2018-11-03T23:13:40.313Z,0.50
2018-11-03T23:16:43.425Z,0.40
2018-11-03T23:19:46.480Z,0.40
2018-11-03T23:22:49.498Z,0.40
2018-11-03T23:25:52.481Z,0.40
2018-11-03T23:28:55.498Z,0.40
2018-11-03T23:31:58.544Z,0.40
2018-11-03T23:35:01.565Z,0.40
2018-11-03T23:38:05.285Z,0.40
2018-11-03T23:41:08.272Z,0.40
2018-11-03T23:44:11.327Z,0.40
2018-11-03T23:47:14.344Z,0.30
2018-11-03T23:50:17.303Z,0.30
2018-11-03T23:53:20.472Z,0.30
2018-11-03T23:56:23.488Z,0.30
2018-11-03T23:59:26.596Z,0.20
